Agua Fria, Mexico

10:57 AM CDT on May 29, 2017 (GMT -0500)
Del Norte International | | Change Station

Elev 1470 ft 25.87 °N, 100.23 °W | Updated 17 minutes ago

Overcast
Overcast
70 °F
Feels Like 70 °F
N
5
Wind Variable Wind from SE

Today
High -- | Low -- °F
--% Chance of Precip.
Yesterday
High -- | Low -- °F
Precip. -- in
Pressure 30.06 in
Visibility 3.0 miles
Clouds Few 800 ft
Mostly Cloudy 3000 ft
Overcast 4000 ft
Dew Point 66 °F
Humidity 88%
Rainfall 1.41 in
Snow Depth Not available.
6:49 AM 8:26 PM
Waxing Crescent, 20% visible
METAR MMAN 291540Z 13004KT 3SM HZ FEW008 BKN030 OVC040 21/19 A3006 RMK 8/5//
Pressure 30.06 in
Visibility 3.0 miles
Clouds Few 800 ft
Mostly Cloudy 3000 ft
Overcast 4000 ft
Dew Point 66 °F
Humidity 88%
Rainfall 1.41 in
Snow Depth Not available.
6:49 AM 8:26 PM
Waxing Crescent, 20% visible
METAR MMAN 291540Z 13004KT 3SM HZ FEW008 BKN030 OVC040 21/19 A3006 RMK 8/5//

Get Severe Weather Alerts

Thanks for signing up!

Be on the lookout for a verification email in your inbox.

You'll start receiving the daily forecast at 6 AM.

×

10-Day Weather Forecast

No radar image for this location.
×

Almanac

Astronomy

May. 29, 2017 Rise Set
Actual Time
Civil Twilight
Nautical Twilight
Astronomical Twilight
Moon
Length of Visible Light
Length of Day
Tomorrow will be .
, % of the Moon is Illuminated

Today's Extremes

Country Highs Country Lows

Community

WunderPhotos

Category 6

Welcome to Category 6. This is the collective home for Weather Underground's featured writeups by Dr. Jeff Masters (right), Bob Henson (left), Chris Burt, and other regular contributors.

Nearby

Air Quality

  Air Quality AQ Index Pollutant
Not available.

Snow Depth

Station Depth Elevation

Earthquake Activity

City Distance Mag. Time & Date
Minimum magnitude displayed is 2.5.

Coastal Water Temperatures

Place Temperature

Stations

Nearby Weather Stations

Station Location Temp. Windchill Dew Point Humidity Wind Precip. Elev Updated Type